createdAt,value
2018-07-03T00:00:54.853Z,1.33
2018-07-03T00:03:24.148Z,1.27
2018-07-03T00:05:52.315Z,1.37
2018-07-03T00:08:22.047Z,1.60
2018-07-03T00:10:50.206Z,1.30
2018-07-03T00:13:18.363Z,1.30
2018-07-03T00:15:46.514Z,1.00
2018-07-03T00:18:14.670Z,1.27
2018-07-03T00:20:42.818Z,1.40
2018-07-03T00:23:10.973Z,1.00
2018-07-03T00:25:39.130Z,1.20
2018-07-03T00:28:07.314Z,1.50
2018-07-03T00:30:35.643Z,1.27
2018-07-03T00:33:03.883Z,1.30
2018-07-03T00:35:32.038Z,1.60
2018-07-03T00:38:00.200Z,1.17
2018-07-03T00:40:28.350Z,1.57
2018-07-03T00:42:56.564Z,2.43
2018-07-03T00:45:24.726Z,1.53
2018-07-03T00:47:52.644Z,1.40
2018-07-03T00:50:20.808Z,1.23
2018-07-03T00:52:48.960Z,1.50
2018-07-03T00:55:16.905Z,1.30
2018-07-03T00:57:45.070Z,1.20
2018-07-03T01:00:24.674Z,1.20
2018-07-03T01:02:52.853Z,1.33
2018-07-03T01:05:21.003Z,1.50
2018-07-03T01:07:49.162Z,1.37
2018-07-03T01:10:17.318Z,1.33
2018-07-03T01:12:45.477Z,1.40
2018-07-03T01:15:13.636Z,1.73
2018-07-03T01:17:41.802Z,1.57
2018-07-03T01:20:09.970Z,1.40
2018-07-03T01:22:38.121Z,1.63
2018-07-03T01:25:06.342Z,1.50
2018-07-03T01:27:34.526Z,1.90
2018-07-03T01:30:02.706Z,1.40
2018-07-03T01:32:30.846Z,1.40
2018-07-03T01:34:59.083Z,1.30
2018-07-03T01:37:27.254Z,1.40
2018-07-03T01:39:55.394Z,1.50
2018-07-03T01:42:23.345Z,1.60
2018-07-03T01:44:51.569Z,1.40
2018-07-03T01:47:19.735Z,1.60
2018-07-03T01:49:47.898Z,1.43
2018-07-03T01:52:16.045Z,1.50
2018-07-03T01:54:44.243Z,1.30
2018-07-03T01:57:12.401Z,1.63
2018-07-03T01:59:40.566Z,1.30
2018-07-03T02:02:08.778Z,1.37
2018-07-03T02:04:37.159Z,1.70
2018-07-03T02:07:05.806Z,1.63
2018-07-03T02:09:33.962Z,1.60
2018-07-03T02:12:02.118Z,1.60
2018-07-03T02:14:30.282Z,1.57
2018-07-03T02:16:58.435Z,1.77
2018-07-03T02:19:26.593Z,1.80
2018-07-03T02:21:54.825Z,1.33
2018-07-03T02:24:23.002Z,1.70
2018-07-03T02:26:51.383Z,1.53
2018-07-03T02:29:19.538Z,1.70
2018-07-03T02:31:47.707Z,1.80
2018-07-03T02:34:15.863Z,1.60
2018-07-03T02:36:44.042Z,1.70
2018-07-03T02:39:12.509Z,1.70
2018-07-03T02:41:41.048Z,2.93
2018-07-03T02:44:09.210Z,1.80
2018-07-03T02:46:37.374Z,1.80
2018-07-03T02:49:05.646Z,1.77
2018-07-03T02:51:33.823Z,1.67
2018-07-03T02:54:01.968Z,1.80
2018-07-03T02:56:30.146Z,1.83
2018-07-03T02:58:58.306Z,1.93
2018-07-03T03:01:26.234Z,1.93
2018-07-03T03:03:54.386Z,1.50
2018-07-03T03:06:22.538Z,1.90
2018-07-03T03:08:50.708Z,1.70
2018-07-03T03:11:22.651Z,1.90
2018-07-03T03:13:53.142Z,2.00
2018-07-03T03:16:21.390Z,2.10
2018-07-03T03:18:49.308Z,1.90
2018-07-03T03:21:17.621Z,2.17
2018-07-03T03:23:45.782Z,2.00
2018-07-03T03:26:13.946Z,1.83
2018-07-03T03:28:42.118Z,1.80
2018-07-03T03:31:10.278Z,2.13
2018-07-03T03:33:38.438Z,1.83
2018-07-03T03:36:06.627Z,1.90
2018-07-03T03:38:34.787Z,1.93
2018-07-03T03:41:02.942Z,2.10
2018-07-03T03:43:31.118Z,2.50
2018-07-03T03:45:59.266Z,2.03
2018-07-03T03:48:27.426Z,2.37
2018-07-03T03:50:55.594Z,2.03
2018-07-03T03:53:23.746Z,2.10
2018-07-03T03:55:51.906Z,1.90
2018-07-03T03:58:20.059Z,2.07
2018-07-03T04:00:48.276Z,2.10
2018-07-03T04:03:16.418Z,2.00
2018-07-03T04:05:44.587Z,2.17
2018-07-03T04:08:12.734Z,2.17
2018-07-03T04:10:40.892Z,1.80
2018-07-03T04:13:09.087Z,2.07
2018-07-03T04:15:37.241Z,2.00
2018-07-03T04:18:05.335Z,1.80
2018-07-03T04:20:33.499Z,2.20
2018-07-03T04:23:01.634Z,1.97
2018-07-03T04:25:29.822Z,1.80
2018-07-03T04:27:57.973Z,2.10
2018-07-03T04:30:26.142Z,1.90
2018-07-03T04:32:54.294Z,2.20
2018-07-03T04:35:22.454Z,2.50
2018-07-03T04:37:50.610Z,2.23
2018-07-03T04:40:18.774Z,2.30
2018-07-03T04:42:46.930Z,2.30
2018-07-03T04:45:15.082Z,2.07
2018-07-03T04:47:43.231Z,2.00
2018-07-03T04:50:11.394Z,2.13
2018-07-03T04:52:39.550Z,2.60
2018-07-03T04:55:07.806Z,1.93
2018-07-03T04:57:35.966Z,2.17
2018-07-03T05:00:04.134Z,2.53
2018-07-03T05:02:32.290Z,2.60
2018-07-03T05:05:00.450Z,2.33
2018-07-03T05:07:28.610Z,2.67
2018-07-03T05:09:56.782Z,2.60
2018-07-03T05:12:24.943Z,2.33
2018-07-03T05:14:53.106Z,2.80
2018-07-03T05:17:21.039Z,2.40
2018-07-03T05:19:49.170Z,2.43
2018-07-03T05:22:17.333Z,2.93
2018-07-03T05:24:45.513Z,2.70
2018-07-03T05:27:13.735Z,2.60
2018-07-03T05:29:41.885Z,3.00
2018-07-03T05:32:10.526Z,2.67
2018-07-03T05:34:38.756Z,2.60
2018-07-03T05:37:07.508Z,3.07
2018-07-03T05:39:35.646Z,2.53
2018-07-03T05:42:03.814Z,2.53
2018-07-03T05:44:31.962Z,2.43
2018-07-03T05:47:00.126Z,2.30
2018-07-03T05:49:28.280Z,2.60
2018-07-03T05:51:56.442Z,2.67
2018-07-03T05:54:24.603Z,2.50
2018-07-03T05:56:52.776Z,2.10
2018-07-03T05:59:20.962Z,2.43
2018-07-03T06:01:49.376Z,3.63
2018-07-03T06:04:17.684Z,2.73
2018-07-03T06:06:45.634Z,2.57
2018-07-03T06:09:13.967Z,2.50
2018-07-03T06:11:42.054Z,2.20
2018-07-03T06:14:10.224Z,2.90
2018-07-03T06:16:38.376Z,2.47
2018-07-03T06:19:07.174Z,2.20
2018-07-03T06:21:35.330Z,2.10
2018-07-03T06:24:03.254Z,2.60
2018-07-03T06:26:31.411Z,2.17
2018-07-03T06:28:59.610Z,2.00
2018-07-03T06:31:28.394Z,1.90
2018-07-03T06:33:56.638Z,2.40
2018-07-03T06:36:25.684Z,2.40
2018-07-03T06:38:53.693Z,2.23
2018-07-03T06:41:22.114Z,2.40
2018-07-03T06:43:50.306Z,1.90
2018-07-03T06:46:18.570Z,2.40
2018-07-03T06:48:46.951Z,2.60
2018-07-03T06:51:15.312Z,2.47
2018-07-03T06:53:43.456Z,2.00
2018-07-03T06:56:11.791Z,2.63
2018-07-03T06:58:40.727Z,2.07
2018-07-03T07:01:08.963Z,2.17
2018-07-03T07:03:37.118Z,2.20
2018-07-03T07:06:05.802Z,1.80
2018-07-03T07:08:34.020Z,2.17
2018-07-03T07:11:02.198Z,2.20
2018-07-03T07:13:31.202Z,2.00
2018-07-03T07:16:00.150Z,2.17
2018-07-03T07:18:28.295Z,1.90
2018-07-03T07:20:56.446Z,1.77
2018-07-03T07:23:24.669Z,1.90
2018-07-03T07:25:52.771Z,1.50
2018-07-03T07:28:20.946Z,1.83
2018-07-03T07:30:49.158Z,1.80
2018-07-03T07:33:17.530Z,1.63
2018-07-03T07:35:45.687Z,1.50
2018-07-03T07:38:13.842Z,1.80
2018-07-03T07:40:42.698Z,1.30
2018-07-03T07:43:10.842Z,1.50
2018-07-03T07:45:39.126Z,1.33
2018-07-03T07:48:07.270Z,1.97
2018-07-03T07:50:35.442Z,1.37
2018-07-03T07:53:04.222Z,1.40
2018-07-03T07:55:32.621Z,1.63
2018-07-03T07:58:00.772Z,1.50
2018-07-03T08:00:29.148Z,1.40
2018-07-03T08:02:57.424Z,1.53
2018-07-03T08:05:25.587Z,1.30
2018-07-03T08:07:53.730Z,1.27
2018-07-03T08:10:22.042Z,1.37
2018-07-03T08:12:50.197Z,1.90
2018-07-03T08:15:18.385Z,1.50
2018-07-03T08:17:46.659Z,1.67
2018-07-03T08:20:14.849Z,1.97
2018-07-03T08:22:42.994Z,1.50
2018-07-03T08:25:11.154Z,1.30
2018-07-03T08:27:39.330Z,1.50
2018-07-03T08:30:08.042Z,1.40
2018-07-03T08:32:36.345Z,1.20
2018-07-03T08:35:04.603Z,1.30
2018-07-03T08:37:32.766Z,1.33
2018-07-03T08:40:00.923Z,1.53
2018-07-03T08:42:29.094Z,1.40
2018-07-03T08:44:57.262Z,1.20
2018-07-03T08:47:25.454Z,1.30
2018-07-03T08:49:53.690Z,1.13
2018-07-03T08:52:21.874Z,2.10
2018-07-03T08:54:50.035Z,1.10
2018-07-03T08:57:18.234Z,1.43
2018-07-03T08:59:46.372Z,1.07
2018-07-03T09:02:14.534Z,1.20
2018-07-03T09:04:42.694Z,1.70
2018-07-03T09:07:10.858Z,2.23
2018-07-03T09:09:39.007Z,1.50
2018-07-03T09:12:07.170Z,1.27
2018-07-03T09:14:35.339Z,1.40
2018-07-03T09:17:07.754Z,1.33
2018-07-03T09:19:35.918Z,1.50
2018-07-03T09:22:04.085Z,1.40
2018-07-03T09:24:32.238Z,1.30
2018-07-03T09:27:00.401Z,1.10
2018-07-03T09:29:28.565Z,1.30
2018-07-03T09:31:56.804Z,1.10
2018-07-03T09:34:24.958Z,1.20
2018-07-03T09:36:53.126Z,0.90
2018-07-03T09:39:21.282Z,1.00
2018-07-03T09:41:49.438Z,1.10
2018-07-03T09:44:17.595Z,0.97
2018-07-03T09:46:45.765Z,0.97
2018-07-03T09:49:13.922Z,2.07
2018-07-03T09:51:42.074Z,1.20
2018-07-03T09:54:10.238Z,1.10
2018-07-03T09:56:38.390Z,1.50
2018-07-03T09:59:06.582Z,1.23
2018-07-03T10:01:34.738Z,1.27
2018-07-03T10:04:02.898Z,1.20
2018-07-03T10:06:31.045Z,1.40
2018-07-03T10:08:59.211Z,1.20
2018-07-03T10:11:27.398Z,1.20
2018-07-03T10:13:55.558Z,1.20
2018-07-03T10:16:23.702Z,1.03
2018-07-03T10:18:51.913Z,1.20
2018-07-03T10:21:20.013Z,1.30
2018-07-03T10:23:48.192Z,1.20
2018-07-03T10:26:16.323Z,1.10
2018-07-03T10:28:44.477Z,1.00
2018-07-03T10:31:12.633Z,1.20
2018-07-03T10:33:40.778Z,0.90
2018-07-03T10:36:08.938Z,1.20
2018-07-03T10:38:37.191Z,1.20
2018-07-03T10:41:05.360Z,1.10
2018-07-03T10:43:33.502Z,1.03
2018-07-03T10:46:01.818Z,1.17
2018-07-03T10:48:29.985Z,1.07
2018-07-03T10:50:58.201Z,0.90
2018-07-03T10:53:26.355Z,1.07
2018-07-03T10:55:54.510Z,1.30
2018-07-03T10:58:22.686Z,1.30
2018-07-03T11:00:50.849Z,2.53
2018-07-03T11:03:18.998Z,1.40
2018-07-03T11:05:47.213Z,0.90
2018-07-03T11:08:15.322Z,1.50
2018-07-03T11:10:43.490Z,1.23
2018-07-03T11:13:11.445Z,1.03
2018-07-03T11:15:39.634Z,1.40
2018-07-03T11:18:07.783Z,1.30
2018-07-03T11:20:35.943Z,1.70
2018-07-03T11:23:04.093Z,1.30
2018-07-03T11:25:32.662Z,1.30
2018-07-03T11:28:00.815Z,1.50
2018-07-03T11:30:29.311Z,1.30
2018-07-03T11:32:57.459Z,1.40
2018-07-03T11:35:25.642Z,1.43
2018-07-03T11:37:54.458Z,1.40
2018-07-03T11:40:23.012Z,1.20
2018-07-03T11:42:51.319Z,1.73
2018-07-03T11:45:19.446Z,1.20
2018-07-03T11:47:47.985Z,1.50
2018-07-03T11:50:16.146Z,1.40
2018-07-03T11:52:44.308Z,1.80
2018-07-03T11:55:12.473Z,1.17
2018-07-03T11:57:40.615Z,1.97
2018-07-03T12:00:08.784Z,1.20
2018-07-03T12:02:36.966Z,0.90
2018-07-03T12:05:05.158Z,1.43
2018-07-03T12:07:33.325Z,1.40
2018-07-03T12:10:01.536Z,1.40
2018-07-03T12:12:29.726Z,1.10
2018-07-03T12:14:57.894Z,1.37
2018-07-03T12:17:26.142Z,1.10
2018-07-03T12:19:54.371Z,1.50
2018-07-03T12:22:22.476Z,1.23
2018-07-03T12:24:50.650Z,1.80
2018-07-03T12:27:18.963Z,1.50
2018-07-03T12:29:47.134Z,2.00
2018-07-03T12:32:15.304Z,1.37
2018-07-03T12:34:43.671Z,1.80
2018-07-03T12:37:11.846Z,1.60
2018-07-03T12:39:40.024Z,1.20
2018-07-03T12:42:08.318Z,1.27
2018-07-03T12:44:36.493Z,1.10
2018-07-03T12:47:04.922Z,1.27
2018-07-03T12:49:33.175Z,1.23
2018-07-03T12:52:01.382Z,1.37
2018-07-03T12:54:29.797Z,1.50
2018-07-03T12:56:57.972Z,1.27
2018-07-03T12:59:26.175Z,1.23
2018-07-03T13:01:54.404Z,1.40
2018-07-03T13:04:22.637Z,1.20
2018-07-03T13:06:50.783Z,1.23
2018-07-03T13:09:18.986Z,1.40
2018-07-03T13:11:46.892Z,1.40
2018-07-03T13:14:15.055Z,1.27
2018-07-03T13:16:43.034Z,1.20
2018-07-03T13:19:11.202Z,1.50
2018-07-03T13:21:39.441Z,1.27
2018-07-03T13:24:07.598Z,1.40
2018-07-03T13:26:35.758Z,1.70
2018-07-03T13:29:04.245Z,1.37
2018-07-03T13:31:32.794Z,1.67
2018-07-03T13:34:00.927Z,1.53
2018-07-03T13:36:29.080Z,1.67
2018-07-03T13:38:57.296Z,1.37
2018-07-03T13:41:25.413Z,1.83
2018-07-03T13:43:53.334Z,1.37
2018-07-03T13:46:21.486Z,1.43
2018-07-03T13:48:49.699Z,1.20
2018-07-03T13:51:17.926Z,1.73
2018-07-03T13:53:46.082Z,1.47
2018-07-03T13:56:14.246Z,1.57
2018-07-03T13:58:42.414Z,1.50
2018-07-03T14:01:10.578Z,1.30
2018-07-03T14:03:38.743Z,1.70
2018-07-03T14:06:06.922Z,1.53
2018-07-03T14:08:35.114Z,1.80
2018-07-03T14:11:03.306Z,1.57
2018-07-03T14:13:31.453Z,1.30
2018-07-03T14:15:59.630Z,1.67
2018-07-03T14:18:28.058Z,1.57
2018-07-03T14:20:58.085Z,1.40
2018-07-03T14:23:26.980Z,1.53
2018-07-03T14:25:55.190Z,1.70
2018-07-03T14:28:23.352Z,1.43
2018-07-03T14:30:51.565Z,1.10
2018-07-03T14:33:19.750Z,1.47
2018-07-03T14:35:47.971Z,1.20
2018-07-03T14:38:16.122Z,1.10
2018-07-03T14:40:44.292Z,1.33
2018-07-03T14:43:12.435Z,1.50
2018-07-03T14:45:40.610Z,1.30
2018-07-03T14:48:09.199Z,1.30
2018-07-03T14:50:37.804Z,1.40
2018-07-03T14:53:05.974Z,1.37
2018-07-03T14:55:34.206Z,1.20
2018-07-03T14:58:02.374Z,1.40
2018-07-03T15:00:30.550Z,1.43
2018-07-03T15:02:58.709Z,1.33
2018-07-03T15:05:26.855Z,1.30
2018-07-03T15:08:04.465Z,1.30
2018-07-03T15:10:32.656Z,1.60
2018-07-03T15:13:02.015Z,1.40
2018-07-03T15:15:30.166Z,1.30
2018-07-03T15:17:58.394Z,1.57
2018-07-03T15:20:26.653Z,1.30
2018-07-03T15:22:54.790Z,1.23
2018-07-03T15:25:23.033Z,1.30
2018-07-03T15:27:51.185Z,1.20
2018-07-03T15:30:22.189Z,1.80
2018-07-03T15:32:50.592Z,1.23
2018-07-03T15:35:18.766Z,1.83
2018-07-03T15:37:46.998Z,1.10
2018-07-03T15:40:15.162Z,1.20
2018-07-03T15:42:43.313Z,1.53
2018-07-03T15:45:13.010Z,1.13
2018-07-03T15:47:41.186Z,1.43
2018-07-03T15:50:10.490Z,1.23
2018-07-03T15:52:38.780Z,1.70
2018-07-03T15:55:07.362Z,1.37
2018-07-03T15:57:35.550Z,1.53
2018-07-03T16:00:06.735Z,1.30
2018-07-03T16:02:35.002Z,1.23
2018-07-03T16:05:16.855Z,1.90
2018-07-03T16:08:55.178Z,1.20
2018-07-03T16:11:23.330Z,1.43
2018-07-03T16:13:51.576Z,1.37
2018-07-03T16:16:19.750Z,1.60
2018-07-03T16:18:47.935Z,1.40
2018-07-03T16:21:23.499Z,1.03
2018-07-03T16:23:51.678Z,1.50
2018-07-03T16:26:19.826Z,1.50
2018-07-03T16:28:47.991Z,1.50
2018-07-03T16:31:16.180Z,1.23
2018-07-03T16:33:44.342Z,1.80
2018-07-03T16:36:20.458Z,1.50
2018-07-03T16:38:55.010Z,1.30
2018-07-03T16:41:24.192Z,1.10
2018-07-03T16:43:55.481Z,0.93
2018-07-03T16:46:29.949Z,0.77
2018-07-03T16:48:58.560Z,1.40
2018-07-03T16:51:26.731Z,0.90
2018-07-03T16:53:54.888Z,1.00
2018-07-03T16:56:23.122Z,1.10
2018-07-03T16:58:51.670Z,1.20
2018-07-03T17:01:20.055Z,0.90
2018-07-03T17:03:48.298Z,1.10
2018-07-03T17:06:17.378Z,1.10
2018-07-03T17:08:45.549Z,1.30
2018-07-03T17:11:13.786Z,1.17
2018-07-03T17:13:42.017Z,1.30
2018-07-03T17:16:10.141Z,1.00
2018-07-03T17:18:42.538Z,1.53
2018-07-03T17:21:10.702Z,0.87
2018-07-03T17:23:38.858Z,1.20
2018-07-03T17:26:07.050Z,1.40
2018-07-03T17:28:35.283Z,1.10
2018-07-03T17:31:03.401Z,1.30
2018-07-03T17:33:31.550Z,1.00
2018-07-03T17:35:59.722Z,1.40
2018-07-03T17:38:27.886Z,1.30
2018-07-03T17:41:07.450Z,1.17
2018-07-03T17:44:30.255Z,1.33
2018-07-03T17:46:58.414Z,0.83
2018-07-03T17:49:26.566Z,1.20
2018-07-03T17:51:55.046Z,1.30
2018-07-03T17:54:23.199Z,1.27
2018-07-03T17:56:51.359Z,1.20
2018-07-03T17:59:19.557Z,1.07
2018-07-03T18:01:47.719Z,1.20
2018-07-03T18:04:15.922Z,1.50
2018-07-03T18:06:43.848Z,1.33
2018-07-03T18:09:12.968Z,1.10
2018-07-03T18:11:41.126Z,1.10
2018-07-03T18:14:09.342Z,1.00
2018-07-03T18:16:37.609Z,0.90
2018-07-03T18:19:11.251Z,1.30
2018-07-03T18:21:39.496Z,1.30
2018-07-03T18:24:07.658Z,1.40
2018-07-03T18:26:35.908Z,1.40
2018-07-03T18:29:04.069Z,1.33
2018-07-03T18:31:32.380Z,1.33
2018-07-03T18:34:00.738Z,1.20
2018-07-03T18:36:28.947Z,1.27
2018-07-03T18:38:57.399Z,1.20
2018-07-03T18:41:25.539Z,1.30
2018-07-03T18:43:53.726Z,1.10
2018-07-03T18:46:21.650Z,1.27
2018-07-03T18:48:49.818Z,1.10
2018-07-03T18:51:18.037Z,1.10
2018-07-03T18:53:46.205Z,1.20
2018-07-03T18:56:14.422Z,1.70
2018-07-03T18:58:42.611Z,1.17
2018-07-03T19:01:10.823Z,1.40
2018-07-03T19:03:39.002Z,1.37
2018-07-03T19:06:07.309Z,1.40
2018-07-03T19:08:35.503Z,1.40
2018-07-03T19:11:03.654Z,1.47
2018-07-03T19:13:31.834Z,1.20
2018-07-03T19:16:00.029Z,1.60
2018-07-03T19:18:28.190Z,1.23
2018-07-03T19:20:56.402Z,1.20
2018-07-03T19:23:24.554Z,1.60
2018-07-03T19:25:52.742Z,1.53
2018-07-03T19:28:20.968Z,1.30
2018-07-03T19:30:49.112Z,1.40
2018-07-03T19:33:17.404Z,1.60
2018-07-03T19:35:45.538Z,1.63
2018-07-03T19:38:14.091Z,2.00
2018-07-03T19:40:42.408Z,1.80
2018-07-03T19:43:22.215Z,2.00
2018-07-03T19:45:51.561Z,1.33
2018-07-03T19:48:19.778Z,1.60
2018-07-03T19:50:49.571Z,1.90
2018-07-03T19:53:17.722Z,1.80
2018-07-03T19:55:46.773Z,1.57
2018-07-03T19:58:14.815Z,1.80
2018-07-03T20:00:43.029Z,2.13
2018-07-03T20:03:11.254Z,1.90
2018-07-03T20:05:39.413Z,1.50
2018-07-03T20:08:07.570Z,1.93
2018-07-03T20:10:36.652Z,1.90
2018-07-03T20:13:05.160Z,1.70
2018-07-03T20:15:33.353Z,1.73
2018-07-03T20:18:01.597Z,1.50
2018-07-03T20:20:29.873Z,1.80
2018-07-03T20:22:58.078Z,2.20
2018-07-03T20:25:26.257Z,2.10
2018-07-03T20:27:54.455Z,1.73
2018-07-03T20:30:22.623Z,1.70
2018-07-03T20:32:50.863Z,2.37
2018-07-03T20:35:19.245Z,1.80
2018-07-03T20:37:56.337Z,2.00
2018-07-03T20:40:25.096Z,2.47
2018-07-03T20:42:55.037Z,2.30
2018-07-03T20:45:23.386Z,1.80
2018-07-03T20:47:51.297Z,2.13
2018-07-03T20:50:19.794Z,2.00
2018-07-03T20:52:48.134Z,2.27
2018-07-03T20:55:17.053Z,1.70
2018-07-03T20:57:46.051Z,2.10
2018-07-03T21:00:14.194Z,2.70
2018-07-03T21:02:42.357Z,2.30
2018-07-03T21:05:10.521Z,2.23
2018-07-03T21:07:38.769Z,2.17
2018-07-03T21:10:07.040Z,2.20
2018-07-03T21:12:35.221Z,2.10
2018-07-03T21:15:03.418Z,2.47
2018-07-03T21:17:31.624Z,2.33
2018-07-03T21:19:59.810Z,2.80
2018-07-03T21:22:28.010Z,3.20
2018-07-03T21:24:56.178Z,2.33
2018-07-03T21:27:24.462Z,2.67
2018-07-03T21:29:52.652Z,2.77
2018-07-03T21:32:20.870Z,2.43
2018-07-03T21:34:49.069Z,2.87
2018-07-03T21:37:17.274Z,2.33
2018-07-03T21:39:45.446Z,2.80
2018-07-03T21:42:13.698Z,2.80
2018-07-03T21:44:41.906Z,3.03
2018-07-03T21:47:10.260Z,3.13
2018-07-03T21:49:38.430Z,2.70
2018-07-03T21:52:06.781Z,2.67
2018-07-03T21:54:34.966Z,2.60
2018-07-03T21:57:03.246Z,2.77
2018-07-03T21:59:31.478Z,3.20
2018-07-03T22:01:59.673Z,3.20
2018-07-03T22:04:27.605Z,3.10
2018-07-03T22:06:56.954Z,2.57
2018-07-03T22:09:25.225Z,3.20
2018-07-03T22:11:53.469Z,2.93
2018-07-03T22:14:21.586Z,3.03
2018-07-03T22:16:49.762Z,3.17
2018-07-03T22:19:17.741Z,3.33
2018-07-03T22:21:45.973Z,3.00
2018-07-03T22:24:14.150Z,3.30
2018-07-03T22:26:42.346Z,3.60
2018-07-03T22:29:10.604Z,3.40
2018-07-03T22:31:39.066Z,3.00
2018-07-03T22:34:07.358Z,3.70
2018-07-03T22:36:35.529Z,3.10
2018-07-03T22:39:05.849Z,3.30
2018-07-03T22:41:34.118Z,3.60
2018-07-03T22:44:02.298Z,3.97
2018-07-03T22:46:30.814Z,3.40
2018-07-03T22:48:59.015Z,3.50
2018-07-03T22:51:27.227Z,3.60
2018-07-03T22:53:55.497Z,3.73
2018-07-03T22:56:23.868Z,3.63
2018-07-03T22:58:52.142Z,3.77
2018-07-03T23:01:20.306Z,3.70
2018-07-03T23:03:48.494Z,3.63
2018-07-03T23:06:16.646Z,4.37
2018-07-03T23:08:44.813Z,3.93
2018-07-03T23:11:13.073Z,4.43
2018-07-03T23:13:41.251Z,4.10
2018-07-03T23:16:09.427Z,5.20
2018-07-03T23:18:37.590Z,6.70
2018-07-03T23:21:06.402Z,4.00
2018-07-03T23:23:34.614Z,3.77
2018-07-03T23:26:02.857Z,4.50
2018-07-03T23:28:31.028Z,4.23
2018-07-03T23:30:59.234Z,5.00
2018-07-03T23:33:27.430Z,4.57
2018-07-03T23:35:55.638Z,4.73
2018-07-03T23:38:23.894Z,4.50
2018-07-03T23:40:52.082Z,4.90
2018-07-03T23:43:20.254Z,4.93
2018-07-03T23:45:52.745Z,5.20
2018-07-03T23:48:32.893Z,4.50
2018-07-03T23:51:13.086Z,5.00
2018-07-03T23:53:52.626Z,4.80
2018-07-03T23:56:32.130Z,4.80
2018-07-03T23:59:11.831Z,4.97
